createdAt,value
2019-02-26T11:49:47.298Z,63.30
2019-02-26T11:52:19.654Z,63.40
2019-02-26T11:54:46.289Z,61.10
2019-02-26T11:57:15.357Z,61.00
2019-02-26T11:59:45.470Z,61.10
2019-02-26T12:02:14.006Z,62.40
2019-02-26T12:04:42.594Z,62.10
2019-02-26T12:07:11.229Z,60.40
2019-02-26T12:09:40.775Z,61.10
2019-02-26T12:12:11.620Z,62.40
2019-02-26T12:14:43.142Z,62.50
2019-02-26T12:17:10.594Z,62.10
2019-02-26T12:19:39.185Z,61.50
2019-02-26T12:22:07.806Z,62.60
2019-02-26T12:24:36.476Z,62.10
2019-02-26T12:27:07.113Z,62.20
2019-02-26T12:29:35.509Z,61.10
2019-02-26T12:32:04.732Z,62.20
2019-02-26T12:34:35.233Z,63.10
2019-02-26T12:37:06.623Z,63.60
2019-02-26T12:39:35.399Z,62.40
2019-02-26T12:42:04.057Z,63.40
2019-02-26T12:44:34.888Z,62.00
2019-02-26T12:47:02.957Z,62.50
2019-02-26T12:49:33.286Z,63.10
2019-02-26T12:52:03.317Z,64.10
2019-02-26T12:54:33.670Z,61.50
2019-02-26T12:57:04.254Z,62.00
2019-02-26T12:59:32.932Z,62.80
2019-02-26T13:02:01.556Z,62.90
2019-02-26T13:04:30.574Z,64.60
2019-02-26T13:06:59.283Z,64.60
2019-02-26T13:09:27.972Z,64.90
2019-02-26T13:12:02.390Z,65.70
2019-02-26T13:14:26.789Z,65.40
2019-02-26T13:16:57.137Z,66.10
2019-02-26T13:19:30.164Z,64.70
2019-02-26T13:22:04.897Z,65.50
2019-02-26T13:24:26.861Z,63.20
2019-02-26T13:26:59.271Z,63.80
2019-02-26T13:29:25.794Z,64.90
2019-02-26T13:31:59.061Z,63.50
2019-02-26T13:34:25.134Z,64.20
2019-02-26T13:36:56.878Z,63.80
2019-02-26T13:39:29.788Z,63.80
2019-02-26T13:41:58.479Z,64.10
2019-02-26T13:44:24.938Z,63.90
2019-02-26T13:46:53.563Z,64.70
2019-02-26T13:49:22.223Z,62.60
2019-02-26T13:51:50.881Z,63.00
2019-02-26T13:54:19.505Z,64.40
2019-02-26T13:56:48.156Z,61.20
2019-02-26T13:59:16.806Z,60.50
2019-02-26T14:01:45.473Z,60.30
2019-02-26T14:04:14.133Z,59.90
2019-02-26T14:06:43.055Z,59.50
2019-02-26T14:09:11.738Z,59.70
2019-02-26T14:11:40.287Z,60.90
2019-02-26T14:14:08.945Z,62.00
2019-02-26T14:16:37.595Z,62.50
2019-02-26T14:19:06.227Z,63.00
2019-02-26T14:21:34.902Z,63.70
2019-02-26T14:24:03.517Z,64.00
2019-02-26T14:26:32.152Z,61.40
2019-02-26T14:29:01.119Z,61.00
2019-02-26T14:31:29.784Z,60.80
2019-02-26T14:33:58.342Z,60.90
2019-02-26T14:36:27.054Z,61.80
2019-02-26T14:38:55.674Z,62.00
2019-02-26T14:41:24.338Z,60.80
2019-02-26T14:43:52.945Z,61.10
2019-02-26T14:46:21.823Z,60.90
2019-02-26T14:48:50.559Z,61.40
2019-02-26T14:51:19.217Z,61.30
2019-02-26T14:53:49.213Z,61.10
2019-02-26T14:56:18.383Z,61.30
2019-02-26T14:58:47.900Z,60.50
2019-02-26T15:01:16.461Z,60.00
2019-02-26T15:03:45.042Z,60.10
2019-02-26T15:06:13.871Z,60.60
2019-02-26T15:08:42.529Z,63.00
2019-02-26T15:11:11.167Z,62.10
2019-02-26T15:13:40.215Z,61.00
2019-02-26T15:16:10.142Z,61.40
2019-02-26T15:18:38.711Z,61.30
2019-02-26T15:21:07.281Z,61.60
2019-02-26T15:23:35.898Z,62.40
2019-02-26T15:26:04.578Z,62.20
2019-02-26T15:28:33.205Z,62.90
2019-02-26T15:31:01.850Z,63.30
2019-02-26T15:33:30.512Z,63.40
2019-02-26T15:35:59.156Z,62.50
2019-02-26T15:38:27.746Z,62.30
2019-02-26T15:40:56.510Z,62.40
2019-02-26T15:43:25.165Z,62.30
2019-02-26T15:45:53.764Z,64.60
2019-02-26T15:48:22.432Z,64.60
2019-02-26T15:50:51.041Z,65.70
2019-02-26T15:53:23.346Z,64.20
2019-02-26T15:55:49.960Z,65.00
2019-02-26T15:58:18.637Z,64.70
2019-02-26T16:00:47.651Z,65.00
2019-02-26T16:03:16.566Z,65.20
2019-02-26T16:05:45.216Z,65.60
2019-02-26T16:08:13.870Z,66.30
2019-02-26T16:10:42.487Z,66.70
2019-02-26T16:13:11.148Z,66.40
2019-02-26T16:15:39.970Z,67.90
2019-02-26T16:18:08.606Z,68.00
2019-02-26T16:20:37.335Z,67.80
2019-02-26T16:23:05.963Z,67.00
2019-02-26T16:25:34.708Z,67.20
2019-02-26T16:28:03.341Z,68.00
2019-02-26T16:30:31.920Z,67.10
2019-02-26T16:33:00.469Z,67.40
2019-02-26T16:35:29.084Z,67.70
2019-02-26T16:37:57.855Z,68.80
2019-02-26T16:40:31.255Z,68.90
2019-02-26T16:42:57.036Z,69.20
2019-02-26T16:45:27.614Z,69.70
2019-02-26T16:47:57.356Z,69.70
2019-02-26T16:50:27.863Z,69.90
2019-02-26T16:52:57.976Z,70.10
2019-02-26T16:55:27.234Z,70.80
2019-02-26T16:57:55.858Z,71.40
2019-02-26T17:00:29.444Z,71.70
2019-02-26T17:03:00.992Z,71.80
2019-02-26T17:05:28.358Z,71.60
2019-02-26T17:07:57.196Z,71.50
2019-02-26T17:10:45.225Z,71.50
2019-02-26T17:13:13.874Z,71.90
2019-02-26T17:15:42.513Z,71.90
2019-02-26T17:18:11.108Z,72.60
2019-02-26T17:20:39.761Z,72.80
2019-02-26T17:23:08.419Z,73.10
2019-02-26T17:25:37.455Z,73.10
2019-02-26T17:28:06.106Z,73.30
2019-02-26T17:30:35.057Z,74.10
2019-02-26T17:33:03.644Z,73.90
2019-02-26T17:35:32.264Z,73.70
2019-02-26T17:38:01.299Z,73.30
2019-02-26T17:40:29.977Z,73.10
2019-02-26T17:42:58.910Z,72.80
2019-02-26T17:45:34.905Z,72.80
2019-02-26T17:48:03.702Z,73.30
2019-02-26T17:50:37.369Z,73.40
2019-02-26T17:53:06.007Z,73.40
2019-02-26T17:55:34.595Z,73.70
2019-02-26T17:58:03.237Z,73.90
2019-02-26T18:00:33.463Z,73.60
2019-02-26T18:03:06.385Z,73.90
2019-02-26T18:05:32.400Z,73.90
2019-02-26T18:08:01.012Z,74.30
2019-02-26T18:10:29.626Z,75.10
2019-02-26T18:12:58.276Z,74.10
2019-02-26T18:15:26.905Z,73.90
2019-02-26T18:17:55.559Z,73.90
2019-02-26T18:20:28.236Z,73.90
2019-02-26T18:22:54.906Z,73.80
2019-02-26T18:25:26.786Z,74.10
2019-02-26T18:27:55.468Z,73.80
2019-02-26T18:30:25.296Z,73.50
2019-02-26T18:32:57.936Z,73.90
2019-02-26T18:35:24.580Z,74.00
2019-02-26T18:37:53.190Z,74.20
2019-02-26T18:40:21.783Z,73.90
2019-02-26T18:42:50.413Z,74.40
2019-02-26T18:45:27.870Z,74.70
2019-02-26T18:47:57.531Z,74.40
2019-02-26T18:50:28.439Z,74.70
2019-02-26T18:52:58.294Z,75.00
2019-02-26T18:55:28.430Z,75.50
2019-02-26T18:57:57.527Z,75.80
2019-02-26T19:00:31.571Z,76.40
2019-02-26T19:03:00.227Z,77.10
2019-02-26T19:05:28.960Z,77.70
2019-02-26T19:07:57.576Z,77.30
2019-02-26T19:10:26.228Z,77.00
2019-02-26T19:12:55.154Z,77.00
2019-02-26T19:15:26.020Z,77.00
2019-02-26T19:17:56.904Z,77.10
2019-02-26T19:20:48.874Z,77.20
2019-02-26T19:23:15.036Z,77.60
2019-02-26T19:25:43.685Z,78.00
2019-02-26T19:28:12.308Z,77.40
2019-02-26T19:30:40.934Z,78.80
2019-02-26T19:33:09.610Z,77.90
2019-02-26T19:35:40.354Z,78.20
2019-02-26T19:38:08.530Z,78.40
2019-02-26T19:40:40.312Z,79.00
2019-02-26T19:43:08.929Z,79.80
2019-02-26T19:45:37.518Z,79.40
2019-02-26T19:48:06.509Z,79.30
2019-02-26T19:50:35.326Z,80.00
2019-02-26T19:53:04.093Z,79.90
2019-02-26T19:55:44.150Z,80.60
2019-02-26T19:58:12.769Z,80.90
2019-02-26T20:00:41.423Z,81.60
2019-02-26T20:03:10.049Z,81.40
2019-02-26T20:05:38.677Z,82.00
2019-02-26T20:08:07.329Z,81.50
2019-02-26T20:10:35.943Z,80.70
2019-02-26T20:13:04.537Z,81.20
2019-02-26T20:15:33.158Z,81.20
2019-02-26T20:18:02.195Z,81.90
2019-02-26T20:20:40.186Z,82.00
2019-02-26T20:23:05.060Z,82.00
2019-02-26T20:25:31.728Z,82.40
2019-02-26T20:28:05.345Z,84.60
2019-02-26T20:30:30.656Z,82.20
2019-02-26T20:33:01.593Z,82.30
2019-02-26T20:35:29.932Z,84.80
2019-02-26T20:37:59.268Z,84.60
2019-02-26T20:40:28.030Z,84.30
2019-02-26T20:42:57.109Z,85.10
2019-02-26T20:45:26.119Z,84.10
2019-02-26T20:47:55.112Z,85.50
2019-02-26T20:50:24.083Z,85.90
2019-02-26T20:52:52.832Z,86.30
2019-02-26T20:55:22.714Z,85.00
2019-02-26T20:57:55.460Z,86.80
2019-02-26T21:00:24.875Z,87.90
2019-02-26T21:02:52.473Z,87.90
2019-02-26T21:05:22.012Z,87.60
2019-02-26T21:07:50.575Z,87.80
2019-02-26T21:10:20.301Z,87.90
2019-02-26T21:12:48.913Z,88.60
2019-02-26T21:15:20.676Z,88.00
2019-02-26T21:17:49.292Z,87.40
2019-02-26T21:20:18.014Z,87.90
2019-02-26T21:22:46.843Z,86.80
2019-02-26T21:25:15.787Z,87.00
2019-02-26T21:27:44.421Z,87.60
2019-02-26T21:30:21.218Z,87.60
2019-02-26T21:32:49.976Z,88.70
2019-02-26T21:35:20.567Z,88.90
2019-02-26T21:37:48.993Z,90.00
2019-02-26T21:40:17.672Z,87.90
2019-02-26T21:42:46.322Z,88.50
2019-02-26T21:45:16.456Z,88.20
2019-02-26T21:47:45.210Z,88.40
2019-02-26T21:50:17.097Z,87.70
2019-02-26T21:52:58.996Z,87.50
2019-02-26T21:55:17.693Z,87.60
2019-02-26T21:57:46.369Z,88.80
2019-02-26T22:00:21.474Z,89.00
2019-02-26T22:02:52.459Z,89.40
2019-02-26T22:05:20.790Z,89.30
2019-02-26T22:07:52.175Z,88.80
2019-02-26T22:10:21.150Z,88.40
2019-02-26T22:12:49.878Z,87.90
2019-02-26T22:15:18.671Z,88.10
2019-02-26T22:17:49.141Z,88.10
2019-02-26T22:20:35.547Z,88.10
2019-02-26T22:22:53.935Z,86.40
2019-02-26T22:25:22.985Z,86.50
2019-02-26T22:27:51.667Z,86.00
2019-02-26T22:30:22.131Z,86.40
2019-02-26T22:32:51.166Z,87.00
2019-02-26T22:35:25.615Z,88.40
2019-02-26T22:37:51.790Z,86.20
2019-02-26T22:40:22.278Z,87.40
2019-02-26T22:42:52.534Z,87.70
2019-02-26T22:45:22.273Z,88.70
2019-02-26T22:47:51.087Z,88.80
2019-02-26T22:50:19.775Z,88.50
2019-02-26T22:52:48.555Z,88.90
2019-02-26T22:55:18.769Z,88.20
2019-02-26T22:57:47.347Z,89.10
2019-02-26T23:00:56.734Z,89.70
2019-02-26T23:03:25.402Z,90.00
2019-02-26T23:05:54.021Z,88.80
2019-02-26T23:08:23.180Z,90.70
2019-02-26T23:10:51.828Z,91.50
2019-02-26T23:13:20.736Z,91.30
2019-02-26T23:15:50.282Z,91.70
2019-02-26T23:18:19.979Z,91.60
2019-02-26T23:20:49.052Z,92.10
2019-02-26T23:23:21.682Z,91.00
2019-02-26T23:25:48.100Z,91.80
2019-02-26T23:28:21.669Z,91.80
2019-02-26T23:30:47.993Z,91.10
2019-02-26T23:33:16.812Z,92.00
2019-02-26T23:35:47.070Z,91.90
2019-02-26T23:38:15.854Z,92.10
2019-02-26T23:40:44.606Z,91.90
2019-02-26T23:43:15.402Z,92.40
2019-02-26T23:45:45.425Z,91.90
2019-02-26T23:48:16.041Z,91.90
2019-02-26T23:50:47.077Z,91.40
2019-02-26T23:53:15.146Z,91.90
2019-02-26T23:55:47.962Z,91.70
2019-02-26T23:58:14.437Z,92.40
